createdAt,value
2022-08-07T08:11:47.477Z,58.4
2022-08-07T08:20:36.445Z,55.7
2022-08-07T08:28:43.515Z,59.4
2022-08-07T08:36:25.514Z,56.3
2022-08-07T08:43:59.511Z,59.3
2022-08-07T08:51:14.415Z,54.7
2022-08-07T08:58:29.987Z,53
2022-08-07T09:05:53.951Z,53.7
2022-08-07T09:13:10.388Z,52.9
2022-08-07T09:25:37.573Z,66.4
2022-08-07T09:34:14.014Z,62
2022-08-07T09:42:58.756Z,62.3
2022-08-07T09:55:17.203Z,65.4
2022-08-07T10:02:55.537Z,64.8
2022-08-07T10:12:45.973Z,63.6
2022-08-07T10:20:30.355Z,58.8
2022-08-07T10:28:20.998Z,65.9
2022-08-07T10:36:12.575Z,66.2
2022-08-07T10:44:54.614Z,67.3
2022-08-07T10:52:58.851Z,67.4
2022-08-07T11:00:03.788Z,67.5
2022-08-07T11:08:34.532Z,68.1
2022-08-07T11:17:14.532Z,67.9
2022-08-07T11:24:08.431Z,65.1
2022-08-07T11:32:01.702Z,60.6
2022-08-07T11:39:19.597Z,65.4
2022-08-07T11:47:11.098Z,58.2
2022-08-07T11:57:00.846Z,57.7
2022-08-07T12:06:36.708Z,58.7
2022-08-07T12:14:27.432Z,62.1
2022-08-07T12:23:15.255Z,61.4
2022-08-07T12:32:46.842Z,57.8
2022-08-07T12:41:29.177Z,56.5
2022-08-07T12:50:00.407Z,56.4
2022-08-07T12:58:35.691Z,61.4
2022-08-07T13:08:35.022Z,60.3
2022-08-07T13:16:53.184Z,59.9
2022-08-07T13:25:41.724Z,57.4
2022-08-07T13:34:35.388Z,63.9
2022-08-07T13:42:29.490Z,69.8
2022-08-07T13:53:06.308Z,54.8
2022-08-07T14:01:29.774Z,58.4
2022-08-07T14:09:16.932Z,56
2022-08-07T14:17:12.960Z,53.7
2022-08-07T19:44:58.925Z,22.3
2022-08-07T19:54:30.291Z,22.2
2022-08-07T20:04:07.945Z,22.1
2022-08-07T20:13:43.502Z,21.9
2022-08-07T20:21:14.630Z,21.6
2022-08-07T20:29:10.314Z,21.3
2022-08-07T20:36:08.825Z,21
2022-08-07T20:44:04.333Z,20.6
2022-08-07T20:54:29.465Z,20.2
2022-08-07T21:02:23.112Z,19.9
2022-08-07T21:10:08.477Z,19.7
2022-08-07T21:19:09.358Z,19.4
2022-08-07T21:26:32.581Z,19.3
2022-08-07T21:34:19.283Z,19.1
2022-08-07T21:42:58.261Z,18.9
2022-08-07T21:59:06.857Z,18.5
2022-08-07T22:07:06.159Z,18.3
2022-08-07T22:14:15.023Z,18.1
2022-08-07T22:22:27.964Z,18
2022-08-07T22:29:13.670Z,17.9
2022-08-07T22:36:34.536Z,17.8
2022-08-07T22:44:29.470Z,17.8
2022-08-07T22:53:16.639Z,17.8
2022-08-07T23:00:08.352Z,17.7
2022-08-07T23:08:22.449Z,17.6
2022-08-07T23:18:06.099Z,17.6
2022-08-07T23:25:44.705Z,17.5
2022-08-07T23:37:17.792Z,17.3
2022-08-07T23:43:37.797Z,17.1
